sensor_id;sensor_type;location;lat;lon;timestamp;pressure;altitude;pressure_sealevel;temperature;humidity
45731;BME280;31440;48.584;13.460;2023-06-10T00:01:43;96500.38;;;15.49;100.00
45731;BME280;31440;48.584;13.460;2023-06-10T00:04:51;96504.13;;;15.59;100.00
45731;BME280;31440;48.584;13.460;2023-06-10T00:07:56;96512.41;;;14.77;100.00
45731;BME280;31440;48.584;13.460;2023-06-10T00:11:01;96510.38;;;15.42;100.00
45731;BME280;31440;48.584;13.460;2023-06-10T00:14:06;96507.72;;;15.28;100.00
45731;BME280;31440;48.584;13.460;2023-06-10T00:17:10;96496.47;;;15.56;100.00
45731;BME280;31440;48.584;13.460;2023-06-10T00:23:21;96499.66;;;15.47;100.00
45731;BME280;31440;48.584;13.460;2023-06-10T00:26:26;96493.75;;;15.57;100.00
45731;BME280;31440;48.584;13.460;2023-06-10T00:29:31;96499.81;;;15.58;100.00
45731;BME280;31440;48.584;13.460;2023-06-10T00:32:36;96496.19;;;15.60;100.00
45731;BME280;31440;48.584;13.460;2023-06-10T00:35:41;96494.66;;;14.98;100.00
45731;BME280;31440;48.584;13.460;2023-06-10T00:38:45;96494.56;;;15.29;100.00
45731;BME280;31440;48.584;13.460;2023-06-10T00:41:50;96488.47;;;14.85;100.00
45731;BME280;31440;48.584;13.460;2023-06-10T00:44:55;96491.28;;;14.96;100.00
45731;BME280;31440;48.584;13.460;2023-06-10T00:48:00;96484.75;;;14.89;100.00
45731;BME280;31440;48.584;13.460;2023-06-10T00:54:13;96493.97;;;14.94;100.00
45731;BME280;31440;48.584;13.460;2023-06-10T00:57:18;96490.31;;;14.83;100.00
45731;BME280;31440;48.584;13.460;2023-06-10T01:00:22;96493.72;;;14.38;100.00
45731;BME280;31440;48.584;13.460;2023-06-10T01:03:27;96491.69;;;14.11;100.00
45731;BME280;31440;48.584;13.460;2023-06-10T01:06:36;96485.38;;;14.31;100.00
45731;BME280;31440;48.584;13.460;2023-06-10T01:09:55;96480.41;;;14.11;100.00
45731;BME280;31440;48.584;13.460;2023-06-10T01:13:05;96481.59;;;14.37;100.00
45731;BME280;31440;48.584;13.460;2023-06-10T01:16:12;96480.38;;;14.42;100.00
45731;BME280;31440;48.584;13.460;2023-06-10T01:19:17;96484.88;;;14.24;100.00
45731;BME280;31440;48.584;13.460;2023-06-10T01:22:25;96478.81;;;14.40;100.00
45731;BME280;31440;48.584;13.460;2023-06-10T01:25:32;96475.56;;;14.82;100.00
45731;BME280;31440;48.584;13.460;2023-06-10T01:28:52;96473.06;;;14.94;100.00
45731;BME280;31440;48.584;13.460;2023-06-10T01:32:04;96483.56;;;14.79;100.00
45731;BME280;31440;48.584;13.460;2023-06-10T01:35:10;96473.00;;;14.66;100.00
45731;BME280;31440;48.584;13.460;2023-06-10T01:38:17;96482.81;;;14.92;100.00
45731;BME280;31440;48.584;13.460;2023-06-10T01:41:23;96478.38;;;14.47;100.00
45731;BME280;31440;48.584;13.460;2023-06-10T01:44:29;96482.09;;;14.12;100.00
45731;BME280;31440;48.584;13.460;2023-06-10T01:47:33;96487.91;;;14.33;100.00
45731;BME280;31440;48.584;13.460;2023-06-10T01:50:41;96482.34;;;14.23;100.00
45731;BME280;31440;48.584;13.460;2023-06-10T01:53:45;96482.16;;;14.26;100.00
45731;BME280;31440;48.584;13.460;2023-06-10T01:56:51;96485.81;;;14.39;100.00
45731;BME280;31440;48.584;13.460;2023-06-10T01:59:55;96483.69;;;14.46;100.00
45731;BME280;31440;48.584;13.460;2023-06-10T02:02:59;96484.47;;;14.16;100.00
45731;BME280;31440;48.584;13.460;2023-06-10T02:06:04;96486.22;;;14.16;100.00
45731;BME280;31440;48.584;13.460;2023-06-10T02:09:09;96479.22;;;14.48;100.00
45731;BME280;31440;48.584;13.460;2023-06-10T02:12:14;96476.88;;;14.75;100.00
45731;BME280;31440;48.584;13.460;2023-06-10T02:15:21;96478.03;;;14.69;100.00
45731;BME280;31440;48.584;13.460;2023-06-10T02:18:26;96477.53;;;14.31;100.00
45731;BME280;31440;48.584;13.460;2023-06-10T02:21:32;96486.47;;;14.43;100.00
45731;BME280;31440;48.584;13.460;2023-06-10T02:24:38;96478.53;;;13.81;100.00
45731;BME280;31440;48.584;13.460;2023-06-10T02:27:43;96488.44;;;13.75;100.00
45731;BME280;31440;48.584;13.460;2023-06-10T02:30:47;96483.84;;;13.80;100.00
45731;BME280;31440;48.584;13.460;2023-06-10T02:33:53;96489.03;;;13.64;100.00
45731;BME280;31440;48.584;13.460;2023-06-10T02:36:57;96482.88;;;13.65;100.00
45731;BME280;31440;48.584;13.460;2023-06-10T02:40:02;96482.41;;;13.90;100.00
45731;BME280;31440;48.584;13.460;2023-06-10T02:43:09;96485.03;;;14.06;100.00
45731;BME280;31440;48.584;13.460;2023-06-10T02:46:14;96483.00;;;14.42;100.00
45731;BME280;31440;48.584;13.460;2023-06-10T02:49:20;96487.44;;;15.17;100.00
45731;BME280;31440;48.584;13.460;2023-06-10T02:52:24;96499.03;;;14.68;100.00
45731;BME280;31440;48.584;13.460;2023-06-10T02:55:29;96499.25;;;15.39;100.00
45731;BME280;31440;48.584;13.460;2023-06-10T02:58:38;96497.84;;;15.03;100.00
45731;BME280;31440;48.584;13.460;2023-06-10T03:01:46;96495.72;;;14.48;100.00
45731;BME280;31440;48.584;13.460;2023-06-10T03:04:51;96509.31;;;14.55;100.00
45731;BME280;31440;48.584;13.460;2023-06-10T03:07:57;96506.78;;;15.73;100.00
45731;BME280;31440;48.584;13.460;2023-06-10T03:11:02;96504.47;;;14.79;100.00
45731;BME280;31440;48.584;13.460;2023-06-10T03:14:08;96500.28;;;14.76;100.00
45731;BME280;31440;48.584;13.460;2023-06-10T03:17:15;96461.69;;;14.66;100.00
45731;BME280;31440;48.584;13.460;2023-06-10T03:20:21;96500.59;;;14.86;100.00
45731;BME280;31440;48.584;13.460;2023-06-10T03:23:26;96494.78;;;15.55;100.00
45731;BME280;31440;48.584;13.460;2023-06-10T03:29:38;96500.09;;;15.53;100.00
45731;BME280;31440;48.584;13.460;2023-06-10T03:32:44;96505.81;;;14.07;100.00
45731;BME280;31440;48.584;13.460;2023-06-10T03:35:52;96511.41;;;14.17;100.00
45731;BME280;31440;48.584;13.460;2023-06-10T03:38:57;96506.19;;;14.17;100.00
45731;BME280;31440;48.584;13.460;2023-06-10T03:42:05;96508.19;;;14.43;100.00
45731;BME280;31440;48.584;13.460;2023-06-10T03:45:10;96514.25;;;14.28;100.00
45731;BME280;31440;48.584;13.460;2023-06-10T03:48:16;96519.69;;;14.56;100.00
45731;BME280;31440;48.584;13.460;2023-06-10T03:51:25;96523.28;;;14.54;100.00
45731;BME280;31440;48.584;13.460;2023-06-10T03:54:29;96524.84;;;14.58;100.00
45731;BME280;31440;48.584;13.460;2023-06-10T04:00:43;96519.50;;;13.79;100.00
45731;BME280;31440;48.584;13.460;2023-06-10T04:03:47;96524.00;;;14.57;100.00
45731;BME280;31440;48.584;13.460;2023-06-10T04:06:53;96521.16;;;14.92;100.00
45731;BME280;31440;48.584;13.460;2023-06-10T04:09:59;96527.22;;;15.22;100.00
45731;BME280;31440;48.584;13.460;2023-06-10T04:13:04;96535.16;;;15.21;100.00
45731;BME280;31440;48.584;13.460;2023-06-10T04:16:15;96535.63;;;14.97;100.00
45731;BME280;31440;48.584;13.460;2023-06-10T04:19:20;96536.75;;;14.93;100.00
45731;BME280;31440;48.584;13.460;2023-06-10T04:22:25;96531.41;;;15.11;100.00
45731;BME280;31440;48.584;13.460;2023-06-10T04:25:31;96539.88;;;15.30;100.00
45731;BME280;31440;48.584;13.460;2023-06-10T04:28:36;96536.13;;;16.07;100.00
45731;BME280;31440;48.584;13.460;2023-06-10T04:31:40;96536.38;;;15.59;100.00
45731;BME280;31440;48.584;13.460;2023-06-10T04:34:46;96539.22;;;15.41;100.00
45731;BME280;31440;48.584;13.460;2023-06-10T04:37:55;96538.97;;;14.70;100.00
45731;BME280;31440;48.584;13.460;2023-06-10T04:41:01;96537.75;;;15.51;100.00
45731;BME280;31440;48.584;13.460;2023-06-10T04:44:09;96530.81;;;15.36;100.00
45731;BME280;31440;48.584;13.460;2023-06-10T04:47:17;96509.75;;;16.10;100.00
45731;BME280;31440;48.584;13.460;2023-06-10T04:50:22;96531.66;;;15.06;100.00
45731;BME280;31440;48.584;13.460;2023-06-10T04:53:27;96542.03;;;15.38;100.00
45731;BME280;31440;48.584;13.460;2023-06-10T04:56:33;96541.59;;;15.59;100.00
45731;BME280;31440;48.584;13.460;2023-06-10T04:59:37;96535.75;;;15.70;100.00
45731;BME280;31440;48.584;13.460;2023-06-10T05:02:42;96529.59;;;15.41;100.00
45731;BME280;31440;48.584;13.460;2023-06-10T05:05:47;96535.78;;;15.98;100.00
45731;BME280;31440;48.584;13.460;2023-06-10T05:11:57;96539.22;;;16.13;100.00
45731;BME280;31440;48.584;13.460;2023-06-10T05:15:02;96530.66;;;16.38;100.00
45731;BME280;31440;48.584;13.460;2023-06-10T05:18:07;96532.97;;;16.71;100.00
45731;BME280;31440;48.584;13.460;2023-06-10T05:21:11;96533.81;;;16.16;100.00
45731;BME280;31440;48.584;13.460;2023-06-10T05:24:16;96543.03;;;16.36;100.00
45731;BME280;31440;48.584;13.460;2023-06-10T05:30:26;96528.53;;;17.25;100.00
45731;BME280;31440;48.584;13.460;2023-06-10T05:33:31;96539.59;;;17.43;100.00
45731;BME280;31440;48.584;13.460;2023-06-10T05:36:36;96545.63;;;17.18;100.00
45731;BME280;31440;48.584;13.460;2023-06-10T05:42:47;96553.28;;;16.94;100.00
45731;BME280;31440;48.584;13.460;2023-06-10T05:45:52;96550.00;;;17.05;100.00
45731;BME280;31440;48.584;13.460;2023-06-10T05:48:57;96540.38;;;16.64;100.00
45731;BME280;31440;48.584;13.460;2023-06-10T05:52:01;96541.13;;;17.20;100.00
45731;BME280;31440;48.584;13.460;2023-06-10T05:55:06;96539.44;;;17.19;100.00
45731;BME280;31440;48.584;13.460;2023-06-10T06:01:17;96530.09;;;17.93;100.00
45731;BME280;31440;48.584;13.460;2023-06-10T06:04:22;96538.47;;;18.96;100.00
45731;BME280;31440;48.584;13.460;2023-06-10T06:07:27;96537.09;;;18.80;100.00
45731;BME280;31440;48.584;13.460;2023-06-10T06:10:31;96535.94;;;18.71;100.00
45731;BME280;31440;48.584;13.460;2023-06-10T06:13:37;96524.28;;;18.26;100.00
45731;BME280;31440;48.584;13.460;2023-06-10T06:19:47;96530.88;;;18.81;100.00
45731;BME280;31440;48.584;13.460;2023-06-10T06:22:52;96546.41;;;19.55;100.00
45731;BME280;31440;48.584;13.460;2023-06-10T06:25:57;96549.19;;;19.06;100.00
45731;BME280;31440;48.584;13.460;2023-06-10T06:29:01;96546.16;;;19.23;100.00
45731;BME280;31440;48.584;13.460;2023-06-10T06:32:06;96540.03;;;19.47;100.00
45731;BME280;31440;48.584;13.460;2023-06-10T06:35:11;96538.81;;;19.97;100.00
45731;BME280;31440;48.584;13.460;2023-06-10T06:38:15;96553.09;;;19.24;100.00
45731;BME280;31440;48.584;13.460;2023-06-10T06:41:20;96539.31;;;20.13;100.00
45731;BME280;31440;48.584;13.460;2023-06-10T06:44:26;96546.84;;;20.06;100.00
45731;BME280;31440;48.584;13.460;2023-06-10T06:47:30;96544.25;;;20.40;100.00
45731;BME280;31440;48.584;13.460;2023-06-10T06:50:35;96545.06;;;20.52;100.00
45731;BME280;31440;48.584;13.460;2023-06-10T06:53:40;96540.19;;;20.25;100.00
45731;BME280;31440;48.584;13.460;2023-06-10T07:00:11;96550.78;;;21.01;100.00
45731;BME280;31440;48.584;13.460;2023-06-10T07:03:16;96561.34;;;21.22;100.00
45731;BME280;31440;48.584;13.460;2023-06-10T07:06:21;96563.19;;;21.42;100.00
45731;BME280;31440;48.584;13.460;2023-06-10T07:09:26;96566.22;;;21.06;100.00
45731;BME280;31440;48.584;13.460;2023-06-10T07:12:30;96571.25;;;20.98;100.00
45731;BME280;31440;48.584;13.460;2023-06-10T07:15:36;96566.88;;;21.51;100.00
45731;BME280;31440;48.584;13.460;2023-06-10T07:18:40;96568.75;;;21.92;100.00
45731;BME280;31440;48.584;13.460;2023-06-10T07:21:45;96576.22;;;21.87;100.00
45731;BME280;31440;48.584;13.460;2023-06-10T07:24:49;96571.34;;;21.50;100.00
45731;BME280;31440;48.584;13.460;2023-06-10T07:27:56;96572.06;;;21.94;100.00
45731;BME280;31440;48.584;13.460;2023-06-10T07:31:00;96567.88;;;22.83;100.00
45731;BME280;31440;48.584;13.460;2023-06-10T07:34:05;96566.97;;;22.23;100.00
45731;BME280;31440;48.584;13.460;2023-06-10T07:37:09;96573.16;;;23.81;100.00
45731;BME280;31440;48.584;13.460;2023-06-10T07:40:14;96568.59;;;23.54;100.00
45731;BME280;31440;48.584;13.460;2023-06-10T07:46:25;96566.34;;;23.49;86.42
45731;BME280;31440;48.584;13.460;2023-06-10T07:49:31;96574.03;;;24.28;100.00
45731;BME280;31440;48.584;13.460;2023-06-10T07:52:36;96569.91;;;24.90;100.00
45731;BME280;31440;48.584;13.460;2023-06-10T07:55:40;96569.34;;;24.22;100.00
45731;BME280;31440;48.584;13.460;2023-06-10T07:58:45;96569.00;;;25.44;100.00
45731;BME280;31440;48.584;13.460;2023-06-10T08:01:50;96570.75;;;25.36;100.00
45731;BME280;31440;48.584;13.460;2023-06-10T08:04:54;96575.00;;;25.46;100.00
45731;BME280;31440;48.584;13.460;2023-06-10T08:07:59;96563.72;;;26.31;100.00
45731;BME280;31440;48.584;13.460;2023-06-10T08:11:08;96542.66;;;26.80;100.00
45731;BME280;31440;48.584;13.460;2023-06-10T08:14:13;96573.94;;;26.44;77.71
45731;BME280;31440;48.584;13.460;2023-06-10T08:17:18;96571.44;;;25.55;83.68
45731;BME280;31440;48.584;13.460;2023-06-10T08:20:22;96577.38;;;25.49;88.47
45731;BME280;31440;48.584;13.460;2023-06-10T08:23:27;96584.38;;;25.23;93.31
45731;BME280;31440;48.584;13.460;2023-06-10T08:26:31;96578.84;;;25.70;87.74
45731;BME280;31440;48.584;13.460;2023-06-10T08:29:36;96576.34;;;26.29;80.12
45731;BME280;31440;48.584;13.460;2023-06-10T08:32:41;96590.91;;;25.28;82.85
45731;BME280;31440;48.584;13.460;2023-06-10T08:35:45;96584.50;;;25.49;84.97
45731;BME280;31440;48.584;13.460;2023-06-10T08:38:50;96584.97;;;25.17;100.00
45731;BME280;31440;48.584;13.460;2023-06-10T08:42:10;96585.72;;;24.45;91.18
45731;BME280;31440;48.584;13.460;2023-06-10T08:45:18;96590.94;;;24.74;86.88
45731;BME280;31440;48.584;13.460;2023-06-10T08:48:24;96583.69;;;25.21;79.84
45731;BME280;31440;48.584;13.460;2023-06-10T08:51:31;96581.19;;;25.90;89.79
45731;BME280;31440;48.584;13.460;2023-06-10T08:54:38;96578.75;;;26.41;77.25
45731;BME280;31440;48.584;13.460;2023-06-10T08:57:43;96575.47;;;25.59;81.16
45731;BME280;31440;48.584;13.460;2023-06-10T09:00:49;96588.63;;;24.61;83.90
45731;BME280;31440;48.584;13.460;2023-06-10T09:03:54;96587.72;;;24.43;82.41
45731;BME280;31440;48.584;13.460;2023-06-10T09:07:00;96593.34;;;24.11;89.33
45731;BME280;31440;48.584;13.460;2023-06-10T09:10:05;96587.44;;;24.36;89.00
45731;BME280;31440;48.584;13.460;2023-06-10T09:13:13;96561.56;;;25.03;85.92
45731;BME280;31440;48.584;13.460;2023-06-10T09:16:20;96596.25;;;24.74;85.07
45731;BME280;31440;48.584;13.460;2023-06-10T09:19:28;96589.88;;;24.57;87.48
45731;BME280;31440;48.584;13.460;2023-06-10T09:22:33;96589.19;;;25.37;86.33
45731;BME280;31440;48.584;13.460;2023-06-10T09:25:38;96586.47;;;25.65;83.08
45731;BME280;31440;48.584;13.460;2023-06-10T09:31:48;96590.81;;;25.20;83.09
45731;BME280;31440;48.584;13.460;2023-06-10T09:34:53;96570.06;;;26.64;75.71
45731;BME280;31440;48.584;13.460;2023-06-10T09:37:59;96580.63;;;26.22;77.81
45731;BME280;31440;48.584;13.460;2023-06-10T09:41:04;96585.19;;;25.51;75.47
45731;BME280;31440;48.584;13.460;2023-06-10T09:44:15;96585.53;;;25.91;78.61
45731;BME280;31440;48.584;13.460;2023-06-10T09:47:21;96584.59;;;26.18;74.59
45731;BME280;31440;48.584;13.460;2023-06-10T09:50:27;96582.50;;;25.15;79.91
45731;BME280;31440;48.584;13.460;2023-06-10T09:53:33;96583.38;;;25.24;81.78
45731;BME280;31440;48.584;13.460;2023-06-10T09:56:38;96582.69;;;25.22;75.62
45731;BME280;31440;48.584;13.460;2023-06-10T09:59:47;96574.28;;;25.09;78.26
45731;BME280;31440;48.584;13.460;2023-06-10T10:02:53;96569.38;;;25.85;74.12
45731;BME280;31440;48.584;13.460;2023-06-10T10:05:59;96580.94;;;25.40;74.92
45731;BME280;31440;48.584;13.460;2023-06-10T10:09:07;96584.47;;;26.02;73.67
45731;BME280;31440;48.584;13.460;2023-06-10T10:12:15;96576.44;;;26.46;75.57
45731;BME280;31440;48.584;13.460;2023-06-10T10:15:21;96577.19;;;26.30;73.30
45731;BME280;31440;48.584;13.460;2023-06-10T10:18:29;96586.53;;;25.55;78.43
45731;BME280;31440;48.584;13.460;2023-06-10T10:21:38;96584.50;;;25.31;78.59
45731;BME280;31440;48.584;13.460;2023-06-10T10:24:53;96575.28;;;25.25;75.04
45731;BME280;31440;48.584;13.460;2023-06-10T10:28:09;96577.69;;;25.19;78.65
45731;BME280;31440;48.584;13.460;2023-06-10T10:31:16;96572.06;;;25.32;74.80
45731;BME280;31440;48.584;13.460;2023-06-10T10:38:06;96573.72;;;25.68;74.85
45731;BME280;31440;48.584;13.460;2023-06-10T10:41:11;96578.47;;;26.00;73.59
45731;BME280;31440;48.584;13.460;2023-06-10T10:44:16;96567.50;;;26.21;65.68
45731;BME280;31440;48.584;13.460;2023-06-10T10:47:21;96560.88;;;27.76;61.51
45731;BME280;31440;48.584;13.460;2023-06-10T10:50:28;96555.66;;;26.75;64.39
45731;BME280;31440;48.584;13.460;2023-06-10T10:53:37;96553.72;;;26.59;64.04
45731;BME280;31440;48.584;13.460;2023-06-10T11:02:58;96564.44;;;26.42;63.87
45731;BME280;31440;48.584;13.460;2023-06-10T11:06:14;96561.50;;;26.53;63.25
45731;BME280;31440;48.584;13.460;2023-06-10T11:09:27;96563.88;;;26.04;67.56
45731;BME280;31440;48.584;13.460;2023-06-10T11:15:50;96563.09;;;25.50;71.91
45731;BME280;31440;48.584;13.460;2023-06-10T11:18:55;96560.16;;;25.26;73.14
45731;BME280;31440;48.584;13.460;2023-06-10T11:22:01;96557.03;;;26.53;70.98
45731;BME280;31440;48.584;13.460;2023-06-10T11:25:13;96550.41;;;26.99;68.12
45731;BME280;31440;48.584;13.460;2023-06-10T11:28:19;96553.81;;;28.48;59.99
45731;BME280;31440;48.584;13.460;2023-06-10T11:34:38;96547.06;;;27.96;56.10
45731;BME280;31440;48.584;13.460;2023-06-10T11:37:42;96543.72;;;27.86;56.42
45731;BME280;31440;48.584;13.460;2023-06-10T11:40:51;96543.44;;;28.92;53.01
45731;BME280;31440;48.584;13.460;2023-06-10T11:43:56;96530.41;;;29.51;51.59
45731;BME280;31440;48.584;13.460;2023-06-10T11:47:01;96522.22;;;29.98;52.67
45731;BME280;31440;48.584;13.460;2023-06-10T11:50:06;96534.47;;;28.29;51.48
45731;BME280;31440;48.584;13.460;2023-06-10T11:53:11;96529.69;;;29.11;47.92
45731;BME280;31440;48.584;13.460;2023-06-10T11:56:22;96541.25;;;29.80;46.79
45731;BME280;31440;48.584;13.460;2023-06-10T11:59:27;96539.03;;;29.38;47.90
45731;BME280;31440;48.584;13.460;2023-06-10T12:02:32;96533.66;;;29.69;47.37
45731;BME280;31440;48.584;13.460;2023-06-10T12:05:37;96531.50;;;30.39;45.81
45731;BME280;31440;48.584;13.460;2023-06-10T12:08:43;96520.53;;;30.49;45.27
45731;BME280;31440;48.584;13.460;2023-06-10T12:11:54;96528.63;;;31.78;48.64
45731;BME280;31440;48.584;13.460;2023-06-10T12:14:59;96522.44;;;30.55;45.46
45731;BME280;31440;48.584;13.460;2023-06-10T12:18:07;96519.94;;;31.55;42.70
45731;BME280;31440;48.584;13.460;2023-06-10T12:21:19;96525.56;;;31.82;42.53
45731;BME280;31440;48.584;13.460;2023-06-10T12:24:24;96509.22;;;31.55;43.40
45731;BME280;31440;48.584;13.460;2023-06-10T12:27:29;96513.56;;;31.35;43.44
45731;BME280;31440;48.584;13.460;2023-06-10T12:30:35;96512.97;;;30.67;43.10
45731;BME280;31440;48.584;13.460;2023-06-10T12:33:39;96518.09;;;32.26;40.95
45731;BME280;31440;48.584;13.460;2023-06-10T12:36:48;96509.59;;;31.95;41.01
45731;BME280;31440;48.584;13.460;2023-06-10T12:39:53;96509.25;;;30.83;43.79
45731;BME280;31440;48.584;13.460;2023-06-10T12:42:59;96507.88;;;29.91;43.07
45731;BME280;31440;48.584;13.460;2023-06-10T12:46:11;96506.16;;;31.01;40.49
45731;BME280;31440;48.584;13.460;2023-06-10T12:49:20;96497.28;;;29.97;41.15
45731;BME280;31440;48.584;13.460;2023-06-10T12:52:25;96508.59;;;31.17;43.50
45731;BME280;31440;48.584;13.460;2023-06-10T12:55:30;96493.72;;;32.69;40.11
45731;BME280;31440;48.584;13.460;2023-06-10T12:58:34;96487.03;;;33.80;38.34
45731;BME280;31440;48.584;13.460;2023-06-10T13:01:39;96479.13;;;33.39;36.98
45731;BME280;31440;48.584;13.460;2023-06-10T13:04:44;96479.47;;;34.61;37.47
45731;BME280;31440;48.584;13.460;2023-06-10T13:10:55;96471.72;;;35.23;34.15
45731;BME280;31440;48.584;13.460;2023-06-10T13:14:00;96465.44;;;34.46;35.81
45731;BME280;31440;48.584;13.460;2023-06-10T13:17:04;96466.00;;;34.55;33.52
45731;BME280;31440;48.584;13.460;2023-06-10T13:20:12;96459.69;;;33.96;33.52
45731;BME280;31440;48.584;13.460;2023-06-10T13:23:17;96458.06;;;32.88;38.12
45731;BME280;31440;48.584;13.460;2023-06-10T13:29:28;96455.16;;;33.84;37.00
45731;BME280;31440;48.584;13.460;2023-06-10T13:32:32;96452.72;;;32.47;35.62
45731;BME280;31440;48.584;13.460;2023-06-10T13:35:38;96450.97;;;31.06;38.01
45731;BME280;31440;48.584;13.460;2023-06-10T13:38:43;96466.94;;;30.79;40.73
45731;BME280;31440;48.584;13.460;2023-06-10T13:41:47;96479.41;;;30.57;38.77
45731;BME280;31440;48.584;13.460;2023-06-10T13:44:52;96481.19;;;29.45;39.95
45731;BME280;31440;48.584;13.460;2023-06-10T13:47:56;96479.53;;;29.82;41.18
45731;BME280;31440;48.584;13.460;2023-06-10T13:51:01;96477.25;;;29.10;43.20
45731;BME280;31440;48.584;13.460;2023-06-10T13:54:05;96484.25;;;29.34;43.74
45731;BME280;31440;48.584;13.460;2023-06-10T13:57:10;96486.78;;;29.58;44.14
45731;BME280;31440;48.584;13.460;2023-06-10T14:00:15;96494.78;;;28.26;47.84
45731;BME280;31440;48.584;13.460;2023-06-10T14:03:20;96493.69;;;26.57;51.21
45731;BME280;31440;48.584;13.460;2023-06-10T14:06:25;96496.06;;;26.42;53.74
45731;BME280;31440;48.584;13.460;2023-06-10T14:09:30;96496.66;;;25.94;57.52
45731;BME280;31440;48.584;13.460;2023-06-10T14:12:34;96499.81;;;27.16;54.96
45731;BME280;31440;48.584;13.460;2023-06-10T14:15:39;96507.56;;;25.91;56.86
45731;BME280;31440;48.584;13.460;2023-06-10T14:18:44;96507.69;;;26.07;56.82
45731;BME280;31440;48.584;13.460;2023-06-10T14:24:54;96506.78;;;25.73;52.78
45731;BME280;31440;48.584;13.460;2023-06-10T14:27:59;96502.38;;;27.42;48.81
45731;BME280;31440;48.584;13.460;2023-06-10T14:31:04;96503.91;;;26.10;54.28
45731;BME280;31440;48.584;13.460;2023-06-10T14:34:08;96507.03;;;26.65;55.02
45731;BME280;31440;48.584;13.460;2023-06-10T14:37:13;96516.69;;;27.49;53.08
45731;BME280;31440;48.584;13.460;2023-06-10T14:40:18;96552.63;;;25.49;61.87
45731;BME280;31440;48.584;13.460;2023-06-10T14:43:24;96519.22;;;23.63;71.88
45731;BME280;31440;48.584;13.460;2023-06-10T14:46:29;96536.19;;;21.71;88.73
45731;BME280;31440;48.584;13.460;2023-06-10T14:49:33;96542.56;;;21.04;92.25
45731;BME280;31440;48.584;13.460;2023-06-10T14:52:38;96550.22;;;20.64;96.16
45731;BME280;31440;48.584;13.460;2023-06-10T14:55:42;96547.00;;;20.38;100.00
45731;BME280;31440;48.584;13.460;2023-06-10T14:58:47;96574.44;;;19.78;100.00
45731;BME280;31440;48.584;13.460;2023-06-10T15:01:52;96577.19;;;20.23;100.00
45731;BME280;31440;48.584;13.460;2023-06-10T15:04:56;96574.19;;;20.61;100.00
45731;BME280;31440;48.584;13.460;2023-06-10T15:08:01;96579.06;;;19.53;100.00
45731;BME280;31440;48.584;13.460;2023-06-10T15:11:05;96587.66;;;19.90;100.00
45731;BME280;31440;48.584;13.460;2023-06-10T15:14:10;96579.16;;;19.97;100.00
45731;BME280;31440;48.584;13.460;2023-06-10T15:17:15;96577.34;;;19.75;100.00
45731;BME280;31440;48.584;13.460;2023-06-10T15:20:19;96586.41;;;20.51;100.00
45731;BME280;31440;48.584;13.460;2023-06-10T15:23:24;96604.97;;;19.81;100.00
45731;BME280;31440;48.584;13.460;2023-06-10T15:26:29;96611.59;;;20.66;100.00
45731;BME280;31440;48.584;13.460;2023-06-10T15:29:33;96615.16;;;20.76;100.00
45731;BME280;31440;48.584;13.460;2023-06-10T15:32:38;96620.69;;;20.51;100.00
45731;BME280;31440;48.584;13.460;2023-06-10T15:35:42;96608.47;;;20.28;100.00
45731;BME280;31440;48.584;13.460;2023-06-10T15:38:49;96563.22;;;20.99;100.00
45731;BME280;31440;48.584;13.460;2023-06-10T15:41:54;96609.53;;;20.25;100.00
45731;BME280;31440;48.584;13.460;2023-06-10T15:44:59;96605.81;;;20.72;100.00
45731;BME280;31440;48.584;13.460;2023-06-10T15:48:03;96605.81;;;20.39;100.00
45731;BME280;31440;48.584;13.460;2023-06-10T15:51:08;96599.06;;;21.13;100.00
45731;BME280;31440;48.584;13.460;2023-06-10T15:54:12;96608.34;;;20.85;100.00
45731;BME280;31440;48.584;13.460;2023-06-10T15:57:18;96567.06;;;21.38;100.00
45731;BME280;31440;48.584;13.460;2023-06-10T16:00:23;96602.59;;;20.58;100.00
45731;BME280;31440;48.584;13.460;2023-06-10T16:03:28;96602.72;;;20.67;100.00
45731;BME280;31440;48.584;13.460;2023-06-10T16:06:32;96593.72;;;21.03;100.00
45731;BME280;31440;48.584;13.460;2023-06-10T16:09:38;96600.38;;;19.61;100.00
45731;BME280;31440;48.584;13.460;2023-06-10T16:12:43;96571.41;;;20.74;100.00
45731;BME280;31440;48.584;13.460;2023-06-10T16:15:47;96592.06;;;21.23;100.00
45731;BME280;31440;48.584;13.460;2023-06-10T16:18:52;96592.72;;;20.15;100.00
45731;BME280;31440;48.584;13.460;2023-06-10T16:21:57;96601.44;;;19.34;100.00
45731;BME280;31440;48.584;13.460;2023-06-10T16:25:01;96591.03;;;20.03;100.00
45731;BME280;31440;48.584;13.460;2023-06-10T16:28:06;96591.44;;;20.21;100.00
45731;BME280;31440;48.584;13.460;2023-06-10T16:31:10;96591.31;;;20.78;100.00
45731;BME280;31440;48.584;13.460;2023-06-10T16:34:15;96590.78;;;19.95;100.00
45731;BME280;31440;48.584;13.460;2023-06-10T16:37:21;96589.28;;;20.59;100.00
45731;BME280;31440;48.584;13.460;2023-06-10T16:40:25;96590.94;;;20.71;100.00
45731;BME280;31440;48.584;13.460;2023-06-10T16:46:36;96589.97;;;20.17;100.00
45731;BME280;31440;48.584;13.460;2023-06-10T16:49:41;96586.13;;;21.10;100.00
45731;BME280;31440;48.584;13.460;2023-06-10T16:52:45;96593.47;;;20.73;100.00
45731;BME280;31440;48.584;13.460;2023-06-10T16:55:50;96597.63;;;20.08;100.00
45731;BME280;31440;48.584;13.460;2023-06-10T16:58:56;96607.72;;;20.70;100.00
45731;BME280;31440;48.584;13.460;2023-06-10T17:02:01;96609.75;;;20.11;100.00
45731;BME280;31440;48.584;13.460;2023-06-10T17:05:07;96609.22;;;19.95;100.00
45731;BME280;31440;48.584;13.460;2023-06-10T17:08:12;96607.34;;;20.97;100.00